Time;durP1;ratioP1;P1;durP2;ratioP2;P2;SDS_P1;SDS_P2;PMS_P1;PMS_P2;Temp;Humidity;BMP_temperature;BMP_pressure;BME280_temperature;BME280_humidity;BME280_pressure;Samples;Min_cycle;Max_cycle;Signal;HPM_P1;HPM_P2
2021/10/09 07:50:23;;;;;;;24.23;9.78;;;;;;;8.49;37.23;101571.88;1741388;81;21311;-75
2021/10/09 07:53:28;;;;;;;32.83;10.50;;;;;;;8.55;37.21;101587.70;1739359;82;21282;-75
2021/10/09 07:56:33;;;;;;;26.50;9.63;;;;;;;8.63;36.53;101581.09;1740156;82;21192;-75
2021/10/09 07:59:39;;;;;;;27.17;9.55;;;;;;;8.68;35.66;101575.59;1740081;82;21935;-75
2021/10/09 08:02:45;;;;;;;32.67;10.60;;;;;;;8.73;34.94;101582.02;1709470;84;21318;-75
2021/10/09 08:05:52;;;;;;;25.37;9.48;;;;;;;8.69;35.56;101584.64;1709343;84;21216;-75
2021/10/09 08:08:58;;;;;;;31.15;8.93;;;;;;;8.65;35.40;101581.31;1709536;84;21327;-75
2021/10/09 08:12:05;;;;;;;24.95;8.70;;;;;;;8.60;34.86;101586.80;1709222;84;22503;-75
2021/10/09 08:15:10;;;;;;;21.25;8.05;;;;;;;8.52;34.65;101577.94;1733700;82;21172;-75
2021/10/09 08:18:15;;;;;;;21.57;7.97;;;;;;;8.47;34.46;101583.39;1740248;82;21831;-75
2021/10/09 08:21:25;;;;;;;16.97;7.37;;;;;;;8.47;35.13;101573.85;1739576;82;21197;-75
2021/10/09 08:27:45;;;;;;;30.23;8.33;;;;;;;8.69;35.05;101574.59;1726055;83;21896;-75
2021/10/09 08:40:52;;;;;;;20.88;6.85;;;;;;;9.19;33.94;101559.73;1727803;82;21368;-75
2021/10/09 08:43:53;;;;;;;19.77;7.97;;;;;;;9.38;34.10;101550.75;1716759;83;21324;-75
2021/10/09 08:46:58;;;;;;;22.60;7.35;;;;;;;9.66;34.20;101579.66;1717166;83;21180;-75
2021/10/09 08:50:05;;;;;;;19.07;7.30;;;;;;;9.84;32.82;101557.99;1727386;82;21177;-75
2021/10/09 08:53:19;;;;;;;13.40;6.92;;;;;;;9.88;32.63;101557.57;1716502;83;21919;-75
2021/10/09 08:56:49;;;;;;;15.13;6.60;;;;;;;9.87;32.43;101547.62;1688886;83;21342;-77
2021/10/09 09:00:04;;;;;;;21.23;7.50;;;;;;;9.90;32.73;101548.71;1716197;83;21721;-76
2021/10/09 09:03:19;;;;;;;18.48;7.53;;;;;;;9.92;32.73;101552.16;1725884;82;21375;-74
2021/10/09 09:06:28;;;;;;;21.30;7.75;;;;;;;9.90;31.88;101562.88;1697745;84;21368;-75
2021/10/09 09:39:46;;;;;;;25.75;9.88;;;;;;;10.91;28.67;101521.34;1716406;83;21232;-75
2021/10/09 09:42:57;;;;;;;26.25;9.05;;;;;;;10.97;28.29;101511.70;1727425;82;21862;-74
2021/10/09 09:46:05;;;;;;;;;;;;;;;11.00;27.79;101506.77;1718291;83;21375;-75
2021/10/09 09:49:11;;;;;;;21.80;8.98;;;;;;;11.04;27.04;101514.18;1715293;83;20223;-75
2021/10/09 09:52:16;;;;;;;16.77;8.33;;;;;;;11.08;26.28;101512.02;1726187;82;21327;-74
2021/10/09 09:55:27;;;;;;;17.45;8.65;;;;;;;11.08;27.26;101505.17;1718390;83;21338;-75
2021/10/09 09:58:34;;;;;;;17.27;7.62;;;;;;;11.06;26.87;101501.22;1727038;83;21308;-74
2021/10/09 10:01:42;;;;;;;17.50;7.90;;;;;;;11.05;26.32;101495.88;1718177;83;21402;-75
2021/10/09 10:04:47;;;;;;;14.07;7.72;;;;;;;11.03;26.02;101506.12;1727425;83;21839;-75
2021/10/09 10:07:53;;;;;;;26.73;8.75;;;;;;;11.08;25.70;101511.50;1699017;84;21886;-74
2021/10/09 10:11:04;;;;;;;17.85;7.67;;;;;;;11.12;26.10;101516.18;1718142;83;22033;-74
2021/10/09 10:14:09;;;;;;;27.82;8.55;;;;;;;11.17;25.47;101513.84;1697742;84;21315;-74
2021/10/09 10:17:15;;;;;;;23.07;9.78;;;;;;;11.20;25.15;101489.77;1719005;83;21319;-74
2021/10/09 10:20:25;;;;;;;16.07;8.55;;;;;;;11.22;25.46;101497.31;1740449;82;21308;-75
2021/10/09 10:23:49;;;;;;;20.20;9.10;;;;;;;11.26;25.53;101514.31;1739380;82;21288;-74
2021/10/09 10:26:58;;;;;;;20.20;8.20;;;;;;;11.31;25.39;101514.72;1740217;82;21299;-74
2021/10/09 10:30:26;;;;;;;31.05;9.80;;;;;;;11.34;25.53;101506.20;1728638;82;21152;-75
2021/10/09 10:33:49;;;;;;;30.17;9.05;;;;;;;11.36;25.75;101492.34;1725119;82;21895;-76
2021/10/09 10:37:03;;;;;;;20.88;9.33;;;;;;;11.45;26.10;101507.36;1731805;82;21362;-76
2021/10/09 10:40:16;;;;;;;22.48;9.10;;;;;;;11.56;25.96;101495.83;1717195;82;21359;-75
2021/10/09 10:43:56;;;;;;;26.12;8.78;;;;;;;11.66;25.71;101502.09;1738949;82;21236;-76
2021/10/09 10:47:03;;;;;;;17.42;8.53;;;;;;;11.68;25.03;101483.64;1740235;82;21327;-76
2021/10/09 10:50:21;;;;;;;18.27;7.73;;;;;;;11.67;25.43;101476.44;1741051;82;21314;-76
2021/10/09 10:53:35;;;;;;;24.85;8.10;;;;;;;11.64;25.76;101486.33;1741589;81;22093;-76
2021/10/09 10:56:45;;;;;;;;;;;;;;;11.55;25.46;101490.00;1742699;82;21308;-77
2021/10/09 10:59:59;;;;;;;14.75;6.78;;;;;;;11.48;25.70;101489.25;1739715;82;20484;-76
2021/10/09 11:03:05;;;;;;;16.87;6.55;;;;;;;11.44;26.16;101479.61;1714560;82;21386;-76
2021/10/09 11:06:10;;;;;;;12.07;6.60;;;;;;;11.41;25.96;101481.79;1710674;84;21838;-76
2021/10/09 11:09:17;;;;;;;17.37;6.15;;;;;;;11.33;25.92;101481.17;1724000;82;21776;-76
2021/10/09 11:12:33;;;;;;;13.38;6.20;;;;;;;11.27;26.20;101483.16;1711047;84;21205;-77
2021/10/09 11:15:44;;;;;;;18.45;5.92;;;;;;;11.25;26.12;101493.42;1711435;84;21879;-77
2021/10/09 11:19:00;;;;;;;14.00;6.03;;;;;;;11.19;26.29;101486.65;1676409;84;21986;-75
2021/10/09 11:22:06;;;;;;;11.43;6.17;;;;;;;11.17;26.31;101496.05;1710719;84;21386;-75
2021/10/09 11:25:13;;;;;;;13.93;5.92;;;;;;;11.15;26.38;101495.31;1732199;82;21306;-76
2021/10/09 11:28:33;;;;;;;17.92;5.65;;;;;;;11.14;26.60;101471.69;1723129;82;21271;-76
2021/10/09 11:31:39;;;;;;;19.17;5.47;;;;;;;11.13;26.52;101470.84;1711007;84;21331;-75
2021/10/09 11:35:01;;;;;;;19.75;6.03;;;;;;;11.15;26.55;101467.94;1709888;84;21334;-75
2021/10/09 11:38:28;;;;;;;20.48;5.08;;;;;;;11.15;26.40;101461.98;1691178;84;21827;-76
2021/10/09 11:41:32;;;;;;;;;;;;;;;11.16;26.63;101455.99;1713429;84;21193;-76
2021/10/09 11:44:43;;;;;;;20.40;5.65;;;;;;;11.15;26.87;101449.66;1709549;84;20291;-77
2021/10/09 11:55:28;;;;;;;12.43;4.58;;;;;;;11.23;26.53;101459.31;1711005;82;21263;-76
2021/10/09 11:58:33;;;;;;;16.60;4.50;;;;;;;11.26;26.45;101437.63;1719180;82;21316;-75
2021/10/09 12:01:43;;;;;;;13.32;4.65;;;;;;;11.27;26.44;101420.17;1718443;82;21397;-75
2021/10/09 12:04:52;;;;;;;15.95;5.15;;;;;;;11.30;26.22;101436.30;1735116;82;21355;-75
2021/10/09 12:08:25;;;;;;;15.53;5.08;;;;;;;11.34;26.22;101402.59;1728650;82;21204;-76
2021/10/09 12:11:35;;;;;;;12.65;4.50;;;;;;;11.40;26.26;101399.26;1740036;82;21339;-75
2021/10/09 12:14:43;;;;;;;11.65;4.95;;;;;;;11.46;26.23;101414.55;1702436;84;21382;-77
2021/10/09 12:17:52;;;;;;;13.13;5.25;;;;;;;11.51;26.24;101417.69;1714453;84;21205;-76
2021/10/09 12:21:04;;;;;;;10.20;4.00;;;;;;;11.56;26.57;101432.80;1714779;84;21141;-76
2021/10/09 12:24:22;;;;;;;8.83;4.22;;;;;;;11.63;26.47;101432.55;1689400;84;21319;-76
2021/10/09 12:27:40;;;;;;;8.85;4.35;;;;;;;11.68;26.35;101437.05;1712758;84;21197;-76
2021/10/09 12:30:50;;;;;;;16.95;4.25;;;;;;;11.73;26.32;101429.22;1712779;84;21435;-76
2021/10/09 12:34:37;;;;;;;11.80;5.17;;;;;;;11.75;26.36;101429.91;1712140;84;21335;-76
2021/10/09 12:37:43;;;;;;;13.78;5.60;;;;;;;11.77;26.03;101442.97;1709334;84;21338;-75
2021/10/09 12:40:49;;;;;;;13.90;5.92;;;;;;;11.78;25.71;101441.94;1710169;84;21371;-75
2021/10/09 12:43:55;;;;;;;10.10;5.78;;;;;;;11.77;25.55;101451.19;1710463;84;21196;-75
2021/10/09 12:47:00;;;;;;;16.35;5.95;;;;;;;11.76;25.55;101443.95;1710797;84;21319;-75
2021/10/09 12:50:05;;;;;;;21.80;6.20;;;;;;;11.76;25.78;101439.84;1710928;84;21312;-75
2021/10/09 12:53:11;;;;;;;14.47;5.65;;;;;;;11.77;25.54;101445.70;1710927;84;21355;-76
2021/10/09 12:56:17;;;;;;;14.18;6.10;;;;;;;11.76;25.28;101433.00;1707134;82;21339;-75
2021/10/09 12:59:22;;;;;;;20.02;7.75;;;;;;;11.74;25.27;101441.89;1711837;84;21859;-75
2021/10/09 13:02:28;;;;;;;16.82;8.48;;;;;;;11.70;25.27;101435.86;1710868;84;21319;-75
2021/10/09 13:05:36;;;;;;;23.57;8.90;;;;;;;11.69;24.97;101450.59;1730468;83;21181;-75
2021/10/09 13:08:42;;;;;;;20.57;8.53;;;;;;;11.68;25.08;101441.16;1709679;84;21355;-75
2021/10/09 13:12:01;;;;;;;28.25;9.20;;;;;;;11.67;25.09;101440.30;1732330;83;21312;-75
2021/10/09 13:15:06;;;;;;;25.20;9.63;;;;;;;11.67;25.47;101433.96;1701645;84;21264;-74
2021/10/09 13:18:12;;;;;;;22.02;11.10;;;;;;;11.66;25.44;101441.30;1711068;83;21433;-75
2021/10/09 13:21:19;;;;;;;19.65;9.73;;;;;;;11.67;25.28;101446.30;1710457;84;21308;-74
2021/10/09 13:24:26;;;;;;;21.65;9.03;;;;;;;11.65;25.56;101440.95;1730791;83;21768;-74
2021/10/09 13:27:32;;;;;;;16.12;6.75;;;;;;;11.65;25.48;101437.34;1711629;84;21205;-75
2021/10/09 13:30:37;;;;;;;13.85;5.12;;;;;;;11.65;24.30;101438.72;1731393;83;21749;-74
2021/10/09 13:33:43;;;;;;;10.28;5.28;;;;;;;11.66;23.36;101437.19;1702794;84;21319;-74
2021/10/09 13:36:49;;;;;;;18.20;5.08;;;;;;;11.71;23.00;101444.94;1710901;83;21235;-76
2021/10/09 13:39:58;;;;;;;7.33;3.92;;;;;;;11.72;23.14;101434.35;1730059;83;21330;-76
2021/10/09 13:43:03;;;;;;;8.08;4.37;;;;;;;11.71;23.01;101432.09;1701536;84;21315;-76
2021/10/09 13:46:09;;;;;;;15.10;5.00;;;;;;;11.72;23.02;101441.20;1711120;83;21323;-76
2021/10/09 13:49:14;;;;;;;14.30;5.45;;;;;;;11.70;22.77;101448.19;1732106;83;21324;-76
2021/10/09 13:52:20;;;;;;;17.45;5.37;;;;;;;11.68;22.80;101432.42;1711834;84;21661;-76
2021/10/09 13:55:27;;;;;;;15.13;5.70;;;;;;;11.65;22.78;101442.32;1731663;83;21911;-76
2021/10/09 13:58:33;;;;;;;20.65;6.65;;;;;;;11.64;22.91;101431.52;1702668;84;21375;-76
2021/10/09 14:01:39;;;;;;;22.10;7.17;;;;;;;11.62;22.72;101440.39;1711326;83;21378;-76
2021/10/09 14:04:46;;;;;;;16.87;7.03;;;;;;;11.60;22.71;101450.15;1712009;84;22106;-76
2021/10/09 14:07:50;;;;;;;19.70;7.50;;;;;;;11.58;22.74;101452.20;1731600;83;21725;-76
2021/10/09 14:10:55;;;;;;;13.85;6.83;;;;;;;11.57;22.86;101444.11;1712039;83;21589;-76
2021/10/09 14:14:01;;;;;;;19.35;7.45;;;;;;;11.56;22.72;101460.20;1732347;83;21308;-76
2021/10/09 14:17:07;;;;;;;11.80;6.90;;;;;;;11.51;22.70;101439.61;1710252;84;21942;-76
2021/10/09 14:20:14;;;;;;;28.92;7.37;;;;;;;11.52;22.89;101444.06;1711085;84;21214;-75
2021/10/09 14:23:19;;;;;;;20.65;7.05;;;;;;;11.50;22.72;101442.51;1732410;83;21245;-75
2021/10/09 14:26:25;;;;;;;17.95;7.20;;;;;;;11.48;22.82;101439.94;1702242;84;21276;-75
2021/10/09 14:29:31;;;;;;;22.75;7.70;;;;;;;11.47;22.83;101434.59;1712157;83;21197;-75
2021/10/09 14:32:36;;;;;;;12.60;6.28;;;;;;;11.46;22.82;101436.47;1732242;83;21884;-75
2021/10/09 14:35:41;;;;;;;10.10;5.45;;;;;;;11.44;23.09;101430.30;1701514;84;21895;-75
2021/10/09 14:38:47;;;;;;;17.57;5.20;;;;;;;11.41;23.30;101439.33;1711475;83;21338;-75
2021/10/09 14:41:53;;;;;;;9.15;4.50;;;;;;;11.37;23.47;101433.29;1731872;83;21745;-75
2021/10/09 14:44:58;;;;;;;11.45;4.83;;;;;;;11.33;23.72;101430.50;1703211;84;21201;-75
2021/10/09 14:48:19;;;;;;;12.63;4.80;;;;;;;11.31;23.78;101428.95;1712560;83;21311;-75
2021/10/09 14:54:55;;;;;;;14.63;5.95;;;;;;;11.22;24.08;101419.77;1710244;84;21878;-75
2021/10/09 15:18:13;;;;;;;12.95;5.40;;;;;;;10.98;24.76;101432.66;1722668;83;21394;-75
2021/10/09 15:21:15;;;;;;;12.82;5.50;;;;;;;10.96;24.93;101431.45;1745154;81;21855;-76
2021/10/09 15:24:21;;;;;;;11.68;5.75;;;;;;;10.94;25.08;101434.83;1753892;82;21299;-76
2021/10/09 15:27:28;;;;;;;16.50;5.65;;;;;;;10.91;25.14;101427.42;1742259;82;21335;-75
2021/10/09 15:30:34;;;;;;;21.45;5.03;;;;;;;10.87;25.22;101432.36;1753986;82;21600;-75
2021/10/09 15:33:39;;;;;;;8.85;4.87;;;;;;;10.86;25.28;101436.59;1723810;83;21930;-75
2021/10/09 15:36:44;;;;;;;12.18;5.55;;;;;;;10.82;25.32;101447.01;1742145;81;21847;-75
2021/10/09 15:39:50;;;;;;;18.48;6.67;;;;;;;10.80;25.43;101451.75;1752571;82;21361;-75
2021/10/09 15:42:56;;;;;;;22.27;8.43;;;;;;;10.77;25.47;101457.52;1742860;82;21887;-75
2021/10/09 15:46:01;;;;;;;24.07;10.50;;;;;;;10.76;25.36;101461.27;1754005;82;21173;-75
2021/10/09 15:49:07;;;;;;;29.27;12.45;;;;;;;10.73;25.34;101461.08;1742834;82;21205;-75
2021/10/09 15:52:12;;;;;;;40.15;15.10;;;;;;;10.72;25.53;101465.31;1723985;83;21731;-75
2021/10/09 15:55:20;;;;;;;35.73;13.40;;;;;;;10.71;25.71;101464.45;1742801;82;21228;-75
2021/10/09 15:58:25;;;;;;;28.57;11.85;;;;;;;10.68;25.61;101465.25;1748540;82;21860;-75
2021/10/09 16:01:31;;;;;;;24.70;11.22;;;;;;;10.67;25.79;101469.00;1715470;83;22631;-74
2021/10/09 16:04:36;;;;;;;30.08;11.00;;;;;;;10.65;25.96;101465.56;1717354;83;21927;-75
2021/10/09 16:07:41;;;;;;;19.35;10.60;;;;;;;10.61;25.93;101470.47;1726505;82;21312;-74
2021/10/09 16:10:48;;;;;;;26.80;12.65;;;;;;;10.58;25.91;101464.42;1715542;83;21760;-74
2021/10/09 16:13:57;;;;;;;35.80;15.05;;;;;;;10.55;26.07;101467.47;1716889;83;21185;-74
2021/10/09 16:17:02;;;;;;;32.90;14.90;;;;;;;10.49;26.13;101465.69;1672861;84;21261;-74
2021/10/09 16:20:07;;;;;;;23.87;11.90;;;;;;;10.45;26.25;101475.20;1716746;83;21129;-74
2021/10/09 16:23:13;;;;;;;20.43;10.28;;;;;;;10.41;26.28;101472.91;1716950;83;21359;-74
2021/10/09 16:26:19;;;;;;;31.10;9.48;;;;;;;10.36;26.31;101470.61;1726898;82;21225;-74
2021/10/09 16:29:23;;;;;;;22.93;8.33;;;;;;;10.31;26.29;101477.02;1697032;84;21510;-74
2021/10/09 16:32:29;;;;;;;15.13;8.03;;;;;;;10.29;26.46;101475.43;1716839;83;21875;-74
2021/10/09 16:35:35;;;;;;;31.80;7.75;;;;;;;10.22;26.54;101481.45;1728072;82;21364;-76
2021/10/09 16:38:41;;;;;;;19.23;7.28;;;;;;;10.15;26.67;101476.70;1715779;83;21359;-75
2021/10/09 16:41:49;;;;;;;15.68;8.23;;;;;;;10.09;26.72;101478.66;1716339;83;21395;-75
2021/10/09 16:44:56;;;;;;;17.65;8.73;;;;;;;10.02;26.79;101489.33;1726446;82;21327;-75
2021/10/09 16:48:01;;;;;;;29.18;8.93;;;;;;;9.96;26.79;101492.61;1696870;84;21318;-76
2021/10/09 16:51:07;;;;;;;25.50;8.85;;;;;;;9.93;26.92;101491.55;1716637;83;21322;-75
2021/10/09 16:54:14;;;;;;;17.07;7.58;;;;;;;9.89;26.88;101485.50;1727551;82;21870;-75
2021/10/09 16:57:19;;;;;;;16.85;7.33;;;;;;;9.89;26.99;101489.60;1717132;83;21386;-75
2021/10/09 17:00:25;;;;;;;16.45;7.67;;;;;;;9.89;27.12;101488.23;1716956;83;21327;-75
2021/10/09 17:03:30;;;;;;;19.12;7.20;;;;;;;9.88;27.24;101482.89;1727131;83;21309;-75
2021/10/09 17:06:36;;;;;;;16.62;7.65;;;;;;;9.87;27.23;101490.23;1717552;82;21313;-76
2021/10/09 17:09:43;;;;;;;18.77;8.25;;;;;;;9.86;27.30;101489.88;1725950;83;21292;-75
2021/10/09 17:12:50;;;;;;;19.65;8.05;;;;;;;9.88;27.35;101482.89;1718548;83;21342;-76
2021/10/09 17:15:56;;;;;;;19.77;7.08;;;;;;;9.88;27.40;101485.15;1696959;84;21772;-75
2021/10/09 17:19:06;;;;;;;21.10;7.62;;;;;;;9.88;27.49;101482.42;1718869;83;21410;-75
2021/10/09 17:22:10;;;;;;;15.35;8.48;;;;;;;9.88;27.62;101486.52;1727109;83;21380;-76
2021/10/09 17:25:16;;;;;;;22.37;8.43;;;;;;;9.86;27.82;101480.31;1718955;83;21256;-75
2021/10/09 17:28:22;;;;;;;16.52;7.30;;;;;;;9.84;27.80;101478.74;1726145;83;21225;-75
2021/10/09 17:31:27;;;;;;;15.68;7.55;;;;;;;9.79;27.89;101480.54;1719547;83;21252;-75
2021/10/09 17:34:33;;;;;;;18.35;7.30;;;;;;;9.74;28.06;101476.01;1727270;83;21304;-75
2021/10/09 17:37:39;;;;;;;19.80;7.60;;;;;;;9.68;28.17;101471.95;1719050;83;21367;-75
2021/10/09 17:40:45;;;;;;;22.73;7.87;;;;;;;9.64;28.28;101473.74;1727224;83;21194;-75
2021/10/09 17:43:51;;;;;;;13.80;7.67;;;;;;;9.59;28.47;101471.94;1719575;83;22646;-75
2021/10/09 17:46:56;;;;;;;19.00;6.42;;;;;;;9.52;28.69;101467.56;1727389;83;21309;-75
2021/10/09 17:50:01;;;;;;;14.68;6.42;;;;;;;9.46;28.88;101461.31;1718059;83;21338;-75
2021/10/09 17:53:07;;;;;;;22.40;7.10;;;;;;;9.42;29.16;101461.22;1728391;83;21328;-75
2021/10/09 17:56:13;;;;;;;20.70;6.25;;;;;;;9.37;29.29;101464.37;1719012;83;21330;-76
2021/10/09 17:59:18;;;;;;;15.58;5.58;;;;;;;9.34;29.46;101456.45;1725840;83;21336;-75
2021/10/09 18:02:23;;;;;;;12.13;5.80;;;;;;;9.32;29.57;101457.11;1717453;83;21343;-76
2021/10/09 18:05:29;;;;;;;22.95;6.35;;;;;;;9.30;29.73;101467.29;1726771;83;21737;-76
2021/10/09 18:08:34;;;;;;;20.37;6.75;;;;;;;9.28;29.71;101449.34;1718767;83;21331;-75
2021/10/09 18:11:40;;;;;;;22.87;7.45;;;;;;;9.29;29.71;101454.65;1726758;83;21312;-75
2021/10/09 18:14:46;;;;;;;25.48;6.45;;;;;;;9.30;29.74;101456.37;1719018;83;21314;-75
2021/10/09 18:17:52;;;;;;;17.20;8.23;;;;;;;9.32;29.78;101454.37;1726331;83;21201;-76
2021/10/09 18:20:58;;;;;;;29.35;8.35;;;;;;;9.33;29.92;101452.00;1716651;83;21431;-75
2021/10/09 18:24:04;;;;;;;17.25;7.87;;;;;;;9.33;30.01;101450.64;1725874;83;21300;-75
2021/10/09 18:27:10;;;;;;;19.05;8.75;;;;;;;9.32;30.05;101453.52;1719163;83;21307;-75
2021/10/09 18:30:16;;;;;;;22.10;9.45;;;;;;;9.32;30.00;101449.42;1725999;83;21323;-75
2021/10/09 18:33:21;;;;;;;19.92;8.60;;;;;;;9.30;30.08;101448.17;1719378;83;22527;-75
2021/10/09 18:36:26;;;;;;;21.90;9.58;;;;;;;9.31;30.28;101454.50;1727580;83;21320;-76
2021/10/09 18:39:32;;;;;;;28.40;11.22;;;;;;;9.29;30.45;101445.59;1719004;83;21371;-74
2021/10/09 18:42:38;;;;;;;31.77;9.65;;;;;;;9.27;30.51;101447.59;1727132;83;21300;-74
2021/10/09 18:45:45;;;;;;;41.98;9.25;;;;;;;9.27;30.71;101447.11;1719086;83;21181;-76
2021/10/09 18:48:52;;;;;;;19.35;9.00;;;;;;;9.28;31.05;101447.47;1725826;83;21323;-74
2021/10/09 18:51:59;;;;;;;22.85;8.43;;;;;;;9.27;31.16;101448.95;1719045;83;21832;-74
2021/10/09 18:55:04;;;;;;;24.18;8.13;;;;;;;9.28;31.28;101441.15;1727476;83;21319;-74
2021/10/09 18:58:11;;;;;;;28.60;7.85;;;;;;;9.28;31.45;101434.33;1719132;83;21366;-74
2021/10/09 19:01:16;;;;;;;19.20;6.92;;;;;;;9.28;31.55;101431.09;1725429;83;21358;-74
2021/10/09 19:04:22;;;;;;;16.55;7.78;;;;;;;9.28;31.78;101437.91;1719024;83;21177;-74
2021/10/09 19:07:29;;;;;;;18.00;8.43;;;;;;;9.27;31.88;101433.94;1726829;83;21320;-74
2021/10/09 19:10:33;;;;;;;22.90;7.85;;;;;;;9.25;31.92;101434.09;1718487;83;21879;-74
2021/10/09 19:13:39;;;;;;;17.82;7.83;;;;;;;9.26;31.94;101432.22;1727219;83;21327;-74
2021/10/09 19:16:44;;;;;;;19.48;7.60;;;;;;;9.26;31.90;101428.98;1719159;83;21224;-75
2021/10/09 19:19:50;;;;;;;15.32;7.58;;;;;;;9.27;32.00;101427.11;1727374;83;21398;-75
2021/10/09 19:22:57;;;;;;;20.27;7.45;;;;;;;9.28;31.98;101432.95;1719032;83;21319;-75
2021/10/09 19:26:02;;;;;;;17.25;7.35;;;;;;;9.28;31.96;101428.36;1727386;83;21194;-75
2021/10/09 19:29:07;;;;;;;19.37;8.38;;;;;;;9.28;31.91;101433.81;1718827;83;21342;-75
2021/10/09 19:32:14;;;;;;;23.57;8.30;;;;;;;9.30;32.02;101422.75;1727000;83;21347;-75
2021/10/09 19:35:33;;;;;;;19.35;8.28;;;;;;;9.29;32.06;101427.34;1719093;83;21315;-75
2021/10/09 19:38:36;;;;;;;20.70;8.48;;;;;;;9.29;32.15;101430.08;1728069;83;21280;-75
2021/10/09 19:41:42;;;;;;;26.40;9.50;;;;;;;9.29;32.25;101421.02;1719112;83;21351;-75
2021/10/09 19:44:47;;;;;;;32.28;10.10;;;;;;;9.28;32.22;101420.17;1726548;83;21201;-75
2021/10/09 19:47:59;;;;;;;26.62;10.40;;;;;;;9.28;32.33;101410.61;1719903;83;21312;-75
2021/10/09 19:51:13;;;;;;;27.45;10.80;;;;;;;9.28;32.40;101418.80;1726910;83;21317;-75
2021/10/09 19:54:16;;;;;;;30.43;12.33;;;;;;;9.27;32.48;101404.80;1719278;83;21330;-75
2021/10/09 19:57:15;;;;;;;29.25;11.12;;;;;;;9.26;32.56;101405.77;1697984;84;21316;-75
2021/10/09 20:00:22;;;;;;;31.42;12.58;;;;;;;9.24;32.69;101403.70;1718224;83;21201;-75
2021/10/09 20:03:28;;;;;;;23.47;12.60;;;;;;;9.24;32.77;101406.94;1725920;83;21228;-75
2021/10/09 20:06:34;;;;;;;26.40;12.25;;;;;;;9.25;32.87;101404.05;1719046;83;21312;-75
2021/10/09 20:09:45;;;;;;;26.33;12.47;;;;;;;9.25;33.02;101402.69;1697659;84;21368;-75
2021/10/09 20:12:48;;;;;;;32.95;12.45;;;;;;;9.25;33.07;101406.78;1719312;83;21330;-74
2021/10/09 20:15:53;;;;;;;24.52;12.55;;;;;;;9.25;33.17;101398.59;1727126;83;21383;-74
2021/10/09 20:18:59;;;;;;;31.35;12.47;;;;;;;9.25;33.08;101399.10;1717756;83;21736;-74
2021/10/09 20:22:09;;;;;;;27.02;13.08;;;;;;;9.26;33.08;101402.19;1697180;84;21344;-75
2021/10/09 20:25:12;;;;;;;27.02;12.40;;;;;;;9.26;33.05;101402.19;1719183;83;21803;-74
2021/10/09 20:28:17;;;;;;;30.90;13.60;;;;;;;9.26;33.05;101407.14;1727277;83;21195;-74
2021/10/09 20:31:23;;;;;;;34.27;13.32;;;;;;;9.29;33.21;101403.28;1717833;83;21342;-74
2021/10/09 20:34:29;;;;;;;27.25;12.50;;;;;;;9.28;33.20;101410.61;1726328;83;21911;-74
2021/10/09 20:37:34;;;;;;;27.75;13.10;;;;;;;9.28;33.22;101402.42;1718796;83;21311;-75
2021/10/09 20:40:41;;;;;;;32.67;13.50;;;;;;;9.28;33.35;101410.61;1728271;83;21317;-74
2021/10/09 20:43:48;;;;;;;27.20;12.70;;;;;;;9.28;33.28;101411.98;1719143;83;21311;-74
2021/10/09 20:46:54;;;;;;;24.37;12.28;;;;;;;9.28;33.15;101408.39;1725879;83;21661;-74
2021/10/09 20:49:59;;;;;;;37.05;13.28;;;;;;;9.28;33.21;101408.39;1719261;83;21315;-74
2021/10/09 20:53:05;;;;;;;29.30;12.88;;;;;;;9.27;33.34;101419.81;1726037;83;21327;-75
2021/10/09 20:56:11;;;;;;;19.12;10.20;;;;;;;9.26;33.34;101425.39;1719194;83;21315;-75
2021/10/09 20:59:16;;;;;;;30.23;10.80;;;;;;;9.24;33.65;101417.86;1726907;83;21852;-75
2021/10/09 21:02:22;;;;;;;23.25;10.68;;;;;;;9.22;33.74;101426.16;1718445;83;21763;-75
2021/10/09 21:05:28;;;;;;;19.32;10.40;;;;;;;9.21;33.69;101428.55;1744733;82;21226;-75
2021/10/09 21:08:36;;;;;;;19.73;9.80;;;;;;;9.20;33.77;101417.27;1742926;82;21312;-75
2021/10/09 21:12:01;;;;;;;28.57;10.32;;;;;;;9.18;33.81;101422.88;1753559;82;21239;-75
2021/10/09 21:24:56;;;;;;;24.92;10.82;;;;;;;9.15;33.85;101431.34;1724025;83;21842;-75
2021/10/09 21:28:02;;;;;;;28.30;10.30;;;;;;;9.12;33.92;101434.84;1744065;82;21216;-75
2021/10/09 21:31:07;;;;;;;28.17;9.65;;;;;;;9.11;34.06;101431.25;1753405;82;21329;-74
2021/10/09 21:34:13;;;;;;;26.57;10.08;;;;;;;9.08;34.17;101434.28;1742925;82;21352;-74
2021/10/09 21:37:19;;;;;;;17.10;9.28;;;;;;;9.05;34.10;101425.50;1753812;82;21188;-74
2021/10/09 21:40:26;;;;;;;24.30;8.98;;;;;;;9.03;34.27;101430.22;1723838;83;21719;-74
2021/10/09 21:43:32;;;;;;;23.18;9.88;;;;;;;9.00;34.20;101428.64;1742743;81;21344;-74
2021/10/09 21:46:37;;;;;;;24.12;10.05;;;;;;;9.00;34.13;101434.10;1753279;82;21326;-74
2021/10/09 21:49:42;;;;;;;24.82;9.98;;;;;;;9.01;34.16;101432.23;1742919;82;21197;-74
2021/10/09 21:52:47;;;;;;;21.60;9.53;;;;;;;9.00;34.35;101427.28;1752646;82;21752;-74
2021/10/09 21:55:55;;;;;;;26.50;9.95;;;;;;;9.00;34.46;101431.38;1741366;82;21303;-74
2021/10/09 22:02:28;;;;;;;25.23;10.80;;;;;;;8.98;35.01;101436.09;1741935;82;21851;-74
2021/10/09 22:19:23;;;;;;;22.73;9.95;;;;;;;8.85;36.20;101439.59;1761712;81;21710;-74
2021/10/09 22:32:31;;;;;;;23.10;9.13;;;;;;;8.84;36.61;101435.11;1675153;84;21356;-74
2021/10/09 22:35:38;;;;;;;23.42;10.25;;;;;;;8.84;36.79;101438.70;1692035;84;21261;-74
2021/10/09 22:38:45;;;;;;;26.42;10.48;;;;;;;8.86;36.87;101435.84;1746196;82;21228;-74
2021/10/09 22:41:51;;;;;;;28.02;9.13;;;;;;;8.85;37.13;101434.98;1746301;82;21303;-74
2021/10/09 22:44:57;;;;;;;20.12;9.60;;;;;;;8.86;37.43;101431.25;1745449;80;21200;-74
2021/10/09 22:48:03;;;;;;;25.88;8.88;;;;;;;8.85;37.56;101439.08;1745984;82;21334;-75
2021/10/09 22:51:08;;;;;;;19.00;8.78;;;;;;;8.84;37.72;101429.65;1746886;82;21800;-74
2021/10/09 22:54:14;;;;;;;17.20;8.08;;;;;;;8.84;37.93;101441.42;1745982;82;21307;-74
2021/10/09 22:57:19;;;;;;;21.75;8.48;;;;;;;8.85;38.02;101441.81;1746759;82;21822;-74
2021/10/09 23:00:27;;;;;;;21.23;9.65;;;;;;;8.85;38.09;101445.05;1745329;82;21280;-74
2021/10/09 23:03:32;;;;;;;16.60;8.85;;;;;;;8.85;38.13;101438.22;1745578;82;21942;-75
2021/10/09 23:06:38;;;;;;;16.32;8.28;;;;;;;8.84;38.12;101441.92;1734107;82;21269;-74
2021/10/09 23:09:45;;;;;;;19.15;8.45;;;;;;;8.84;38.13;101442.78;1713074;84;21360;-75
2021/10/09 23:12:51;;;;;;;17.15;8.08;;;;;;;8.84;38.10;101441.42;1712997;84;21315;-75
2021/10/09 23:15:56;;;;;;;16.48;8.55;;;;;;;8.85;37.95;101445.05;1711622;84;21860;-75
2021/10/09 23:19:02;;;;;;;19.42;8.45;;;;;;;8.84;38.09;101441.42;1712703;84;22607;-75
2021/10/09 23:22:07;;;;;;;19.62;8.65;;;;;;;8.85;37.96;101444.54;1711740;84;21320;-75
2021/10/09 23:25:14;;;;;;;19.10;7.80;;;;;;;8.85;38.01;101436.35;1711661;84;21392;-75
2021/10/09 23:28:20;;;;;;;15.15;7.33;;;;;;;8.86;38.23;101438.08;1713167;84;21359;-75
2021/10/09 23:31:25;;;;;;;18.75;8.08;;;;;;;8.84;38.36;101430.51;1711699;84;21308;-75
2021/10/09 23:34:31;;;;;;;20.60;7.90;;;;;;;8.84;38.52;101437.33;1712202;84;21729;-75
2021/10/09 23:37:36;;;;;;;11.55;7.28;;;;;;;8.82;38.70;101435.25;1712876;84;21312;-76
2021/10/09 23:40:43;;;;;;;17.65;9.00;;;;;;;8.80;38.74;101428.19;1713006;84;21312;-75
2021/10/09 23:43:50;;;;;;;17.67;7.92;;;;;;;8.81;38.81;101429.44;1711657;84;21899;-75
2021/10/09 23:46:55;;;;;;;18.42;8.83;;;;;;;8.80;38.88;101424.99;1713088;84;21828;-75
2021/10/09 23:50:01;;;;;;;16.77;7.60;;;;;;;8.80;39.05;101425.47;1713057;84;21304;-76
2021/10/09 23:53:06;;;;;;;20.68;8.48;;;;;;;8.79;39.33;101421.88;1712872;84;21198;-75
2021/10/09 23:56:12;;;;;;;18.80;8.63;;;;;;;8.78;39.40;101426.98;1713038;84;21162;-75
2021/10/09 23:59:18;;;;;;;21.87;8.83;;;;;;;8.77;39.73;101415.71;1713056;84;21365;-75
